Nossville, Pennsylvania
Current Conditions -  °F | °C
As of 12:53 AM on Wednesday 26 Nov 2014 (Local Time) from KAOO Reporting Station
Clear Clear  
Wind Chill: 32°   Ceiling: Unl
Heat Index: 32°   Visibility: 10mi
Dew Point: 27°   Wind: 0mph
Humidity: 82%   Direction: NA
Pressure: 30.17"   Gusts: NA
Location:  40.2561°N, 77.7747°W
Report Text: KAOO 260553Z AUTO 00000KT 10SM CLR 00/M03 A3017 RMK AO2 SLP227 T00001028 10050 20000 53008
Loading
Personal Weather Stations






























Interactive Weather Map New forecast layout! Learn more

10-Day Weather Forecast

Advertisements
Track Severe Weather on mobile